createdAt,value
2018-10-18T00:01:09.095Z,29.05
2018-10-18T00:03:37.379Z,29.75
2018-10-18T00:06:05.808Z,28.87
2018-10-18T00:08:33.856Z,28.02
2018-10-18T00:11:01.914Z,28.15
2018-10-18T00:13:29.984Z,28.00
2018-10-18T00:15:58.450Z,27.48
2018-10-18T00:18:26.504Z,29.15
2018-10-18T00:20:54.534Z,27.25
2018-10-18T00:23:22.622Z,29.10
2018-10-18T00:25:50.674Z,29.70
2018-10-18T00:28:18.719Z,29.23
2018-10-18T00:30:47.068Z,28.57
2018-10-18T00:33:15.130Z,28.75
2018-10-18T00:35:43.172Z,29.07
2018-10-18T00:38:11.736Z,26.33
2018-10-18T00:40:39.779Z,28.77
2018-10-18T00:43:07.851Z,26.65
2018-10-18T00:45:36.115Z,29.40
2018-10-18T00:48:04.240Z,28.30
2018-10-18T00:50:32.219Z,28.62
2018-10-18T00:53:00.736Z,27.05
2018-10-18T00:55:28.765Z,30.25
2018-10-18T00:57:56.919Z,26.20
2018-10-18T01:00:25.910Z,27.17
2018-10-18T01:02:53.967Z,28.52
2018-10-18T01:05:22.044Z,28.42
2018-10-18T01:07:50.394Z,26.25
2018-10-18T01:10:18.458Z,27.07
2018-10-18T01:12:46.749Z,26.82
2018-10-18T01:15:14.849Z,29.02
2018-10-18T01:17:42.980Z,27.93
2018-10-18T01:20:11.176Z,26.33
2018-10-18T01:22:39.548Z,28.92
2018-10-18T01:25:07.648Z,28.92
2018-10-18T01:27:35.675Z,29.57
2018-10-18T01:30:04.009Z,27.73
2018-10-18T01:32:31.987Z,28.47
2018-10-18T01:35:00.038Z,27.37
2018-10-18T01:37:28.519Z,27.08
2018-10-18T01:39:56.550Z,28.45
2018-10-18T01:42:24.572Z,27.77
2018-10-18T01:44:53.090Z,27.45
2018-10-18T01:47:21.142Z,28.90
2018-10-18T01:49:49.157Z,27.85
2018-10-18T01:52:17.516Z,28.90
2018-10-18T01:54:45.799Z,28.33
2018-10-18T01:57:13.831Z,27.00
2018-10-18T01:59:41.935Z,30.30
2018-10-18T02:02:09.999Z,27.62
2018-10-18T02:04:38.257Z,28.90
2018-10-18T02:07:06.440Z,28.83
2018-10-18T02:09:34.439Z,30.12
2018-10-18T02:12:02.543Z,31.73
2018-10-18T02:14:30.714Z,29.43
2018-10-18T02:16:58.734Z,28.15
2018-10-18T02:19:26.768Z,29.43
2018-10-18T02:21:54.982Z,28.50
2018-10-18T02:24:23.010Z,28.23
2018-10-18T02:26:51.043Z,31.10
2018-10-18T02:29:19.318Z,31.23
2018-10-18T02:31:47.390Z,31.60
2018-10-18T02:34:15.402Z,29.67
2018-10-18T02:36:43.615Z,31.73
2018-10-18T02:39:11.650Z,31.33
2018-10-18T02:41:39.763Z,29.42
2018-10-18T02:44:07.879Z,29.97
2018-10-18T02:46:35.911Z,29.48
2018-10-18T02:49:03.979Z,30.53
2018-10-18T02:51:32.102Z,29.57
2018-10-18T02:54:00.251Z,29.00
2018-10-18T02:56:28.479Z,29.00
2018-10-18T02:58:56.593Z,30.00
2018-10-18T03:01:24.809Z,28.03
2018-10-18T03:03:52.854Z,30.00
2018-10-18T03:06:21.190Z,31.37
2018-10-18T03:08:49.218Z,30.23
2018-10-18T03:11:17.362Z,31.70
2018-10-18T03:13:45.915Z,30.30
2018-10-18T03:16:14.141Z,29.70
2018-10-18T03:18:42.178Z,28.50
2018-10-18T03:21:10.274Z,30.87
2018-10-18T03:23:38.308Z,29.67
2018-10-18T03:26:06.336Z,31.07
2018-10-18T03:28:34.538Z,28.93
2018-10-18T03:31:02.628Z,30.43
2018-10-18T03:33:30.849Z,30.07
2018-10-18T03:38:41.944Z,30.20
2018-10-18T03:41:10.272Z,30.20
2018-10-18T03:43:38.301Z,30.50
2018-10-18T03:46:06.643Z,31.50
2018-10-18T03:48:34.834Z,32.13
2018-10-18T03:51:02.893Z,28.90
2018-10-18T03:53:30.965Z,30.70
2018-10-18T03:55:59.014Z,27.97
2018-10-18T03:58:27.238Z,28.00
2018-10-18T04:00:55.303Z,28.60
2018-10-18T04:03:23.370Z,28.55
2018-10-18T04:05:51.452Z,28.67
2018-10-18T04:08:19.497Z,27.82
2018-10-18T04:10:47.746Z,27.03
2018-10-18T04:13:15.871Z,28.63
2018-10-18T04:15:43.989Z,27.43
2018-10-18T04:18:12.264Z,27.58
2018-10-18T04:20:40.256Z,27.87
2018-10-18T04:23:08.295Z,28.47
2018-10-18T04:25:36.377Z,27.67
2018-10-18T04:28:04.648Z,27.33
2018-10-18T04:30:32.712Z,30.97
2018-10-18T04:33:00.999Z,31.25
2018-10-18T04:35:29.042Z,28.67
2018-10-18T04:37:57.405Z,28.92
2018-10-18T04:40:25.868Z,29.60
2018-10-18T04:42:54.095Z,30.07
2018-10-18T04:45:22.787Z,28.55
2018-10-18T04:47:51.213Z,30.53
2018-10-18T04:50:19.114Z,30.47
2018-10-18T04:52:47.146Z,31.97
2018-10-18T04:55:15.566Z,30.07
2018-10-18T04:57:43.581Z,31.37
2018-10-18T05:00:11.824Z,30.63
2018-10-18T05:02:40.091Z,28.23
2018-10-18T05:05:19.487Z,29.87
2018-10-18T05:07:47.635Z,28.80
2018-10-18T05:10:15.753Z,30.25
2018-10-18T05:12:43.798Z,30.13
2018-10-18T05:15:11.831Z,30.53
2018-10-18T05:17:39.843Z,29.43
2018-10-18T05:20:08.056Z,29.47
2018-10-18T05:22:36.231Z,28.43
2018-10-18T05:25:05.534Z,30.50
2018-10-18T05:27:33.479Z,29.43
2018-10-18T05:30:01.619Z,30.93
2018-10-18T05:32:29.667Z,30.33
2018-10-18T05:34:57.706Z,30.40
2018-10-18T05:37:25.954Z,30.13
2018-10-18T05:39:53.948Z,29.43
2018-10-18T05:42:22.000Z,30.05
2018-10-18T05:44:50.436Z,29.63
2018-10-18T05:47:18.582Z,30.23
2018-10-18T05:49:46.751Z,30.55
2018-10-18T05:52:14.951Z,30.57
2018-10-18T05:54:43.610Z,30.10
2018-10-18T05:57:11.689Z,28.20
2018-10-18T05:59:39.749Z,31.17
2018-10-18T06:02:08.150Z,28.43
2018-10-18T06:04:36.319Z,29.87
2018-10-18T06:07:04.661Z,30.00
2018-10-18T06:09:34.045Z,30.85
2018-10-18T06:12:02.340Z,29.52
2018-10-18T06:14:31.255Z,28.38
2018-10-18T06:16:59.528Z,29.82
2018-10-18T06:19:27.607Z,30.37
2018-10-18T06:21:55.631Z,28.55
2018-10-18T06:24:23.663Z,26.87
2018-10-18T06:26:52.131Z,27.87
2018-10-18T06:29:20.151Z,26.95
2018-10-18T06:31:48.219Z,27.98
2018-10-18T06:34:16.257Z,29.67
2018-10-18T06:36:44.302Z,28.57
2018-10-18T06:39:12.890Z,28.60
2018-10-18T06:41:42.029Z,27.87
2018-10-18T06:44:10.100Z,29.48
2018-10-18T06:46:38.978Z,31.82
2018-10-18T06:49:07.106Z,29.90
2018-10-18T06:51:35.220Z,28.42
2018-10-18T06:54:03.438Z,28.70
2018-10-18T06:56:31.686Z,28.50
2018-10-18T06:58:59.728Z,27.48
2018-10-18T07:01:27.894Z,29.10
2018-10-18T07:03:56.293Z,30.15
2018-10-18T07:06:24.328Z,31.25
2018-10-18T07:08:52.414Z,30.12
2018-10-18T07:11:20.468Z,29.27
2018-10-18T07:13:48.477Z,28.52
2018-10-18T07:16:16.510Z,28.57
2018-10-18T07:18:45.144Z,30.68
2018-10-18T07:21:13.156Z,28.93
2018-10-18T07:23:41.251Z,30.37
2018-10-18T07:26:09.522Z,30.85
2018-10-18T07:28:37.579Z,29.05
2018-10-18T07:31:05.767Z,28.87
2018-10-18T07:33:34.025Z,29.60
2018-10-18T07:36:02.364Z,31.12
2018-10-18T07:38:30.495Z,33.35
2018-10-18T07:40:58.712Z,35.33
2018-10-18T07:43:26.760Z,32.65
2018-10-18T07:45:54.889Z,35.20
2018-10-18T07:48:22.969Z,34.48
2018-10-18T07:50:50.988Z,36.30
2018-10-18T07:53:19.217Z,33.92
2018-10-18T07:55:47.415Z,34.05
2018-10-18T07:58:15.451Z,34.10
2018-10-18T08:00:43.676Z,32.87
2018-10-18T08:03:11.607Z,31.57
2018-10-18T08:05:39.909Z,35.00
2018-10-18T08:08:07.934Z,31.45
2018-10-18T08:10:35.957Z,32.45
2018-10-18T08:13:04.419Z,33.08
2018-10-18T08:15:32.586Z,33.48
2018-10-18T08:18:01.130Z,31.70
2018-10-18T08:20:29.388Z,32.97
2018-10-18T08:22:57.455Z,32.10
2018-10-18T08:25:25.499Z,31.80
2018-10-18T08:27:53.559Z,33.67
2018-10-18T08:30:21.618Z,32.38
2018-10-18T08:32:50.107Z,32.73
2018-10-18T08:35:18.155Z,32.95
2018-10-18T08:37:46.309Z,33.13
2018-10-18T08:40:14.531Z,32.35
2018-10-18T08:42:42.644Z,32.55
2018-10-18T08:45:11.534Z,32.67
2018-10-18T08:47:39.812Z,42.85
2018-10-18T08:50:09.291Z,38.55
2018-10-18T08:52:37.443Z,32.83
2018-10-18T08:55:06.927Z,34.75
2018-10-18T08:57:34.930Z,35.33
2018-10-18T09:00:03.003Z,32.42
2018-10-18T09:02:31.059Z,32.20
2018-10-18T09:04:59.150Z,33.65
2018-10-18T09:07:27.624Z,32.83
2018-10-18T09:09:55.847Z,33.28
2018-10-18T09:12:24.108Z,31.68
2018-10-18T09:14:52.171Z,32.10
2018-10-18T09:17:20.247Z,32.47
2018-10-18T09:19:48.823Z,33.30
2018-10-18T09:22:17.140Z,30.95
2018-10-18T09:24:45.343Z,32.10
2018-10-18T09:27:13.383Z,31.48
2018-10-18T09:29:41.435Z,31.30
2018-10-18T09:32:09.766Z,29.25
2018-10-18T09:34:38.132Z,33.05
2018-10-18T09:37:06.546Z,31.57
2018-10-18T09:39:34.575Z,31.10
2018-10-18T09:42:02.815Z,30.17
2018-10-18T09:44:31.062Z,31.73
2018-10-18T09:46:58.986Z,30.20
2018-10-18T09:49:32.762Z,28.50
2018-10-18T09:52:00.983Z,28.65
2018-10-18T09:54:29.265Z,28.85
2018-10-18T09:56:57.282Z,27.90
2018-10-18T09:59:25.341Z,28.25
2018-10-18T10:01:58.938Z,28.20
2018-10-18T10:04:26.966Z,28.62
2018-10-18T10:06:55.080Z,28.80
2018-10-18T10:09:23.436Z,29.25
2018-10-18T10:11:51.504Z,27.90
2018-10-18T10:14:19.574Z,28.93
2018-10-18T10:16:47.679Z,28.30
2018-10-18T10:19:15.801Z,26.97
2018-10-18T10:21:43.992Z,27.35
2018-10-18T10:24:12.250Z,27.85
2018-10-18T10:26:40.299Z,26.93
2018-10-18T10:29:09.018Z,27.02
2018-10-18T10:31:37.715Z,27.15
2018-10-18T10:34:05.755Z,27.30
2018-10-18T10:36:33.885Z,26.70
2018-10-18T10:39:02.231Z,26.23
2018-10-18T10:41:30.191Z,28.05
2018-10-18T10:43:58.208Z,27.98
2018-10-18T10:46:26.330Z,26.10
2018-10-18T10:48:54.458Z,27.02
2018-10-18T10:51:22.461Z,26.57
2018-10-18T10:53:50.950Z,25.88
2018-10-18T10:56:19.097Z,24.52
2018-10-18T10:58:47.102Z,26.55
2018-10-18T11:01:16.806Z,24.35
2018-10-18T11:03:45.085Z,24.75
2018-10-18T11:06:13.369Z,23.60
2018-10-18T11:08:41.384Z,23.18
2018-10-18T11:11:10.826Z,25.02
2018-10-18T11:13:38.827Z,22.60
2018-10-18T11:16:07.177Z,22.40
2018-10-18T11:18:36.164Z,22.42
2018-10-18T11:21:06.059Z,27.10
2018-10-18T11:23:34.687Z,22.77
2018-10-18T11:26:02.961Z,22.13
2018-10-18T11:28:30.957Z,22.55
2018-10-18T11:30:59.198Z,22.47
2018-10-18T11:33:27.267Z,22.82
2018-10-18T11:35:55.339Z,24.25
2018-10-18T11:38:23.345Z,22.93
2018-10-18T11:40:51.663Z,24.30
2018-10-18T11:43:19.747Z,24.45
2018-10-18T11:45:48.064Z,29.77
2018-10-18T11:48:16.894Z,23.42
2018-10-18T11:50:44.988Z,22.82
2018-10-18T11:53:13.095Z,22.82
2018-10-18T11:55:41.594Z,24.07
2018-10-18T11:58:10.431Z,24.25
2018-10-18T12:00:38.634Z,22.98
2018-10-18T12:03:06.893Z,22.02
2018-10-18T12:05:35.347Z,22.77
2018-10-18T12:08:03.602Z,23.17
2018-10-18T12:10:31.821Z,20.90
2018-10-18T12:13:00.204Z,22.17
2018-10-18T12:15:28.222Z,21.52
2018-10-18T12:17:56.355Z,21.52
2018-10-18T12:20:24.411Z,21.60
2018-10-18T12:22:52.809Z,21.85
2018-10-18T12:25:20.888Z,21.20
2018-10-18T12:27:48.993Z,21.00
2018-10-18T12:30:16.982Z,22.40
2018-10-18T12:32:45.039Z,22.70
2018-10-18T12:35:13.274Z,21.70
2018-10-18T12:37:41.203Z,21.20
2018-10-18T12:40:09.532Z,21.97
2018-10-18T12:42:39.087Z,21.57
2018-10-18T12:45:08.442Z,21.55
2018-10-18T12:47:36.566Z,21.25
2018-10-18T12:50:05.066Z,22.25
2018-10-18T12:52:33.540Z,22.45
2018-10-18T12:55:01.680Z,21.70
2018-10-18T12:57:29.877Z,21.02
2018-10-18T12:59:58.054Z,21.62
2018-10-18T13:02:26.179Z,21.17
2018-10-18T13:04:54.180Z,22.05
2018-10-18T13:07:22.371Z,23.57
2018-10-18T13:09:50.483Z,22.35
2018-10-18T13:12:18.633Z,23.65
2018-10-18T13:14:47.398Z,21.50
2018-10-18T13:17:15.427Z,24.55
2018-10-18T13:19:43.506Z,22.52
2018-10-18T13:22:11.606Z,24.23
2018-10-18T13:24:39.627Z,23.93
2018-10-18T13:27:07.759Z,24.60
2018-10-18T13:29:36.042Z,25.08
2018-10-18T13:32:04.494Z,24.43
2018-10-18T13:34:32.519Z,23.73
2018-10-18T13:37:00.559Z,22.98
2018-10-18T13:39:28.630Z,24.27
2018-10-18T13:41:56.682Z,23.52
2018-10-18T13:44:24.858Z,23.33
2018-10-18T13:46:53.008Z,23.92
2018-10-18T13:49:21.206Z,24.12
2018-10-18T13:51:49.341Z,23.22
2018-10-18T13:54:18.257Z,20.37
2018-10-18T13:56:46.577Z,21.70
2018-10-18T13:59:26.859Z,20.60
2018-10-18T14:01:54.717Z,20.83
2018-10-18T14:04:22.743Z,21.62
2018-10-18T14:06:50.814Z,20.72
2018-10-18T14:09:18.887Z,21.82
2018-10-18T14:11:47.009Z,21.27
2018-10-18T14:14:15.227Z,21.93
2018-10-18T14:16:43.504Z,22.05
2018-10-18T14:19:11.704Z,21.65
2018-10-18T14:21:39.867Z,20.95
2018-10-18T14:24:08.067Z,20.85
2018-10-18T14:26:36.130Z,21.60
2018-10-18T14:29:04.312Z,20.40
2018-10-18T14:31:32.332Z,20.82
2018-10-18T14:34:00.370Z,21.70
2018-10-18T14:36:28.695Z,22.07
2018-10-18T14:38:57.039Z,19.32
2018-10-18T14:41:24.996Z,21.00
2018-10-18T14:43:53.362Z,22.58
2018-10-18T14:46:21.370Z,24.10
2018-10-18T14:48:49.396Z,21.93
2018-10-18T14:51:17.859Z,22.07
2018-10-18T14:53:45.883Z,20.65
2018-10-18T14:56:13.979Z,20.68
2018-10-18T14:58:42.975Z,20.97
2018-10-18T15:01:11.058Z,21.25
2018-10-18T15:03:39.083Z,20.57
2018-10-18T15:06:07.124Z,22.58
2018-10-18T15:08:35.507Z,21.65
2018-10-18T15:11:03.673Z,21.42
2018-10-18T15:13:31.829Z,20.25
2018-10-18T15:15:59.882Z,19.95
2018-10-18T15:18:28.174Z,20.40
2018-10-18T15:20:56.299Z,21.15
2018-10-18T15:23:25.887Z,21.23
2018-10-18T15:25:54.260Z,21.68
2018-10-18T15:28:22.274Z,21.00
2018-10-18T15:30:50.300Z,21.00
2018-10-18T15:33:18.388Z,20.60
2018-10-18T15:35:48.321Z,20.02
2018-10-18T15:38:16.644Z,19.62
2018-10-18T15:40:44.650Z,18.25
2018-10-18T15:43:12.867Z,19.48
2018-10-18T15:45:40.934Z,20.50
2018-10-18T15:48:09.171Z,18.32
2018-10-18T15:50:37.291Z,19.75
2018-10-18T15:53:06.098Z,20.10
2018-10-18T15:55:34.163Z,17.48
2018-10-18T15:58:02.504Z,18.83
2018-10-18T16:00:30.751Z,19.40
2018-10-18T16:02:59.083Z,19.15
2018-10-18T16:05:27.081Z,18.55
2018-10-18T16:07:55.154Z,19.27
2018-10-18T16:10:23.254Z,19.57
2018-10-18T16:12:51.799Z,19.45
2018-10-18T16:15:19.837Z,20.48
2018-10-18T16:17:47.954Z,18.95
2018-10-18T16:20:16.348Z,20.00
2018-10-18T16:22:44.376Z,19.60
2018-10-18T16:25:12.639Z,21.37
2018-10-18T16:27:41.658Z,20.45
2018-10-18T16:30:09.899Z,19.82
2018-10-18T16:32:38.303Z,18.65
2018-10-18T16:35:06.835Z,19.03
2018-10-18T16:37:34.953Z,19.82
2018-10-18T16:40:03.402Z,18.52
2018-10-18T16:42:31.460Z,18.50
2018-10-18T16:44:59.966Z,18.45
2018-10-18T16:47:28.172Z,20.17
2018-10-18T16:49:56.228Z,18.92
2018-10-18T16:52:24.304Z,17.70
2018-10-18T16:54:52.315Z,21.62
2018-10-18T16:57:20.934Z,18.12
2018-10-18T16:59:48.972Z,19.40
2018-10-18T17:02:17.102Z,18.27
2018-10-18T17:04:45.164Z,18.32
2018-10-18T17:07:13.295Z,19.85
2018-10-18T17:09:41.502Z,17.67
2018-10-18T17:12:11.442Z,17.80
2018-10-18T17:14:39.451Z,16.70
2018-10-18T17:17:07.532Z,15.63
2018-10-18T17:19:35.647Z,14.60
2018-10-18T17:22:03.913Z,12.93
2018-10-18T17:24:31.984Z,11.75
2018-10-18T17:27:00.096Z,8.45
2018-10-18T17:29:28.379Z,9.88
2018-10-18T17:31:56.442Z,9.43
2018-10-18T17:34:24.874Z,9.23
2018-10-18T17:36:52.920Z,9.68
2018-10-18T17:39:20.957Z,8.48
2018-10-18T17:41:49.494Z,9.33
2018-10-18T17:44:17.639Z,9.78
2018-10-18T17:46:45.789Z,8.65
2018-10-18T17:49:13.962Z,9.10
2018-10-18T17:51:42.116Z,11.05
2018-10-18T17:54:11.205Z,9.83
2018-10-18T17:56:39.331Z,12.75
2018-10-18T17:59:07.475Z,12.73
2018-10-18T18:01:35.701Z,13.75
2018-10-18T18:04:03.982Z,11.90
2018-10-18T18:06:32.254Z,12.58
2018-10-18T18:11:28.618Z,11.30
2018-10-18T18:13:56.767Z,11.40
2018-10-18T18:16:24.831Z,12.37
2018-10-18T18:18:53.143Z,11.75
2018-10-18T18:21:21.263Z,12.28
2018-10-18T18:23:49.475Z,11.28
2018-10-18T18:26:17.830Z,11.45
2018-10-18T18:28:45.861Z,11.33
2018-10-18T18:31:13.942Z,10.57
2018-10-18T18:33:42.442Z,11.90
2018-10-18T18:36:10.456Z,11.30
2018-10-18T18:38:38.512Z,9.55
2018-10-18T18:41:06.794Z,11.30
2018-10-18T18:43:34.843Z,12.37
2018-10-18T18:46:02.927Z,11.50
2018-10-18T18:48:30.988Z,10.88
2018-10-18T18:50:59.173Z,10.63
2018-10-18T18:53:27.240Z,11.10
2018-10-18T18:55:55.635Z,11.88
2018-10-18T18:58:23.664Z,11.30
2018-10-18T19:00:52.767Z,9.83
2018-10-18T19:03:20.908Z,11.90
2018-10-18T19:05:48.938Z,10.78
2018-10-18T19:08:16.986Z,10.58
2018-10-18T19:10:45.083Z,10.07
2018-10-18T19:13:13.186Z,10.05
2018-10-18T19:15:41.166Z,9.18
2018-10-18T19:18:09.414Z,9.73
2018-10-18T19:20:37.463Z,8.33
2018-10-18T19:23:05.520Z,7.62
2018-10-18T19:25:33.831Z,7.92
2018-10-18T19:28:01.903Z,8.33
2018-10-18T19:30:30.167Z,7.60
2018-10-18T19:32:58.861Z,7.85
2018-10-18T19:35:27.073Z,6.17
2018-10-18T19:37:55.416Z,6.67
2018-10-18T19:40:23.574Z,6.22
2018-10-18T19:42:51.764Z,5.05
2018-10-18T19:45:20.416Z,5.17
2018-10-18T19:47:48.576Z,5.90
2018-10-18T19:50:16.684Z,5.45
2018-10-18T19:52:44.729Z,5.55
2018-10-18T19:55:12.819Z,5.55
2018-10-18T19:57:40.866Z,5.53
2018-10-18T20:00:09.354Z,5.50
2018-10-18T20:02:37.559Z,5.35
2018-10-18T20:05:06.156Z,3.95
2018-10-18T20:07:34.248Z,4.60
2018-10-18T20:10:02.495Z,3.47
2018-10-18T20:12:30.535Z,4.80
2018-10-18T20:14:58.730Z,5.70
2018-10-18T20:17:27.255Z,5.50
2018-10-18T20:19:55.300Z,5.45
2018-10-18T20:22:23.354Z,4.92
2018-10-18T20:24:51.498Z,5.15
2018-10-18T20:27:19.717Z,4.35
2018-10-18T20:29:47.789Z,5.00
2018-10-18T20:32:15.888Z,4.85
2018-10-18T20:34:43.895Z,4.80
2018-10-18T20:37:11.912Z,5.45
2018-10-18T20:39:40.059Z,4.72
2018-10-18T20:42:08.054Z,5.40
2018-10-18T20:44:36.096Z,4.60
2018-10-18T20:47:04.552Z,4.97
2018-10-18T20:49:32.530Z,5.17
2018-10-18T20:52:00.558Z,4.60
2018-10-18T20:54:28.618Z,4.12
2018-10-18T20:56:56.637Z,4.65
2018-10-18T20:59:24.679Z,4.75
2018-10-18T21:01:52.750Z,4.22
2018-10-18T21:04:20.851Z,4.70
2018-10-18T21:06:48.859Z,4.17
2018-10-18T21:09:17.047Z,4.00
2018-10-18T21:11:45.116Z,3.58
2018-10-18T21:14:13.162Z,3.67
2018-10-18T21:16:41.314Z,3.17
2018-10-18T21:19:09.421Z,3.30
2018-10-18T21:21:37.483Z,2.92
2018-10-18T21:24:05.534Z,3.60
2018-10-18T21:26:33.611Z,3.62
2018-10-18T21:29:01.960Z,3.25
2018-10-18T21:31:29.967Z,2.98
2018-10-18T21:33:58.056Z,2.52
2018-10-18T21:36:26.082Z,2.60
2018-10-18T21:38:54.169Z,3.37
2018-10-18T21:41:22.238Z,2.60
2018-10-18T21:43:50.298Z,1.87
2018-10-18T21:46:18.583Z,2.15
2018-10-18T21:48:46.712Z,1.92
2018-10-18T21:51:14.781Z,1.87
2018-10-18T21:53:42.925Z,2.10
2018-10-18T21:56:11.184Z,1.67
2018-10-18T21:58:39.210Z,2.05
2018-10-18T22:01:07.743Z,2.55
2018-10-18T22:03:35.782Z,1.77
2018-10-18T22:06:03.823Z,2.22
2018-10-18T22:08:31.938Z,1.77
2018-10-18T22:11:00.023Z,1.35
2018-10-18T22:13:28.056Z,1.40
2018-10-18T22:15:56.356Z,1.75
2018-10-18T22:18:24.411Z,2.33
2018-10-18T22:20:52.581Z,1.50
2018-10-18T22:23:20.628Z,1.82
2018-10-18T22:25:48.727Z,1.30
2018-10-18T22:28:17.223Z,1.47
2018-10-18T22:30:45.656Z,1.55
2018-10-18T22:33:13.773Z,1.17
2018-10-18T22:35:41.942Z,1.37
2018-10-18T22:38:10.419Z,1.30
2018-10-18T22:40:38.491Z,1.40
2018-10-18T22:43:06.767Z,1.45
2018-10-18T22:45:35.362Z,0.78
2018-10-18T22:48:03.379Z,0.98
2018-10-18T22:50:31.394Z,1.10
2018-10-18T22:52:59.456Z,1.37
2018-10-18T22:55:27.468Z,1.35
2018-10-18T22:57:55.499Z,1.22
2018-10-18T23:00:23.583Z,1.25
2018-10-18T23:02:51.663Z,1.45
2018-10-18T23:05:19.743Z,1.40
2018-10-18T23:07:47.776Z,1.55
2018-10-18T23:10:15.867Z,1.55
2018-10-18T23:12:43.864Z,1.62
2018-10-18T23:15:12.296Z,1.75
2018-10-18T23:17:40.272Z,1.90
2018-10-18T23:20:08.887Z,1.00
2018-10-18T23:22:37.046Z,1.92
2018-10-18T23:25:05.806Z,1.42
2018-10-18T23:27:33.853Z,1.25
2018-10-18T23:30:02.282Z,1.52
2018-10-18T23:32:31.363Z,1.12
2018-10-18T23:34:59.446Z,1.22
2018-10-18T23:37:27.483Z,1.65
2018-10-18T23:39:55.498Z,1.17
2018-10-18T23:42:23.520Z,1.60
2018-10-18T23:44:51.602Z,1.72
2018-10-18T23:47:19.623Z,1.50
2018-10-18T23:49:47.669Z,1.57
2018-10-18T23:52:15.975Z,2.17
2018-10-18T23:54:43.998Z,1.40
2018-10-18T23:57:12.141Z,2.17
2018-10-18T23:59:40.515Z,1.35
